Aérodrome :
LOGIN :

S'inscrire | Disclaimer

   EN    FR    IT 

 










Légende :    VFR   VFR Marginal   IFR   IFR Intensif   IFR Très Intensif
Visi : 
Plafond : 
>= 8 km
>= 3000ft
5 à 8 km
1000 à 3000 ft
1500m à 5 km
500 à 1000 ft
800 à 1500m
200 à 500 ft
< 800m
< 200 ft
Symboles :   Orages  Brouillard  Fortes neiges  Fortes précipitations  Vent > 20 kt
SIGMETs :   Divers  Orages  Givrage  Turbulence  Onde Orograph.  Cendres Volcan.






- Altitude de l'aérodrome : 1197 ft
- Code IATA : SPM


ETAD - Spangdahlem Ab

DERNIER METAR :
  • 240056Z AUTO 21004KT 9000 BR OVC004 M01/M02 A3026 RMK AO2 SLP258 T10151023 $

METARs EXPIRÉS :
  • 240026Z AUTO 23004KT 9999 OVC004 M01/M02 A3026 RMK AO2 SLP258 $
  • 232356Z AUTO 20003KT 9999 OVC005 M01/M02 A3028 RMK AO2 SLP265 T10091019 11008 21010 55002 $
  • 232311Z AUTO 00000KT 9999 OVC006 M01/M02 A3027 RMK AO2 CIG 005 RWY23 SLP263 $

TAF COR TAF ETAD
Valide du 23 à 22h jusqu'au 25 à 03h UTC


232209Z 2322/2503 09009KT 8000 BR OVC006 QNH3021INS
TEMPO 2403/2410 3200 BR OVC004
BECMG 2412/2413 23008KT 9999 NSW SCT005 BKN012 QNH3018INS
BECMG 2416/2417 20006KT 8000 BR BKN003 OVC005 QNH3016INS TX02/2413Z TNM03/2406Z LAST NO AMDS AFT 2322 NEXT 2405



MET'MAP, la Météo Aéronautique d'un coup d'oeil ! - Copyright ORBIFLY Décembre 2007 - Disclaimer

ORBIFLY MET'MAP TEAM :

Programmation & Développement : Alexandra Zaïnal
Sur une idée originale de : Baudouin d'Aumeries
Assistance à la programmation : Marc-Olivier Méhu
Soutien technique & logistique : Manuel Goepfert

Contact : metmap@orbifly.com




SOURCES & CREDITS :

   NOAA